sensor_id;sensor_type;location;lat;lon;timestamp;P1;durP1;ratioP1;P2;durP2;ratioP2
6564;SDS011;3316;44.118;27.258;2023-07-20T00:02:15;12.02;;;6.70;;
6564;SDS011;3316;44.118;27.258;2023-07-20T00:04:41;9.65;;;6.35;;
6564;SDS011;3316;44.118;27.258;2023-07-20T00:07:06;7.57;;;6.40;;
6564;SDS011;3316;44.118;27.258;2023-07-20T00:09:31;10.00;;;6.30;;
6564;SDS011;3316;44.118;27.258;2023-07-20T00:11:57;10.77;;;6.32;;
6564;SDS011;3316;44.118;27.258;2023-07-20T00:14:25;11.55;;;7.10;;
6564;SDS011;3316;44.118;27.258;2023-07-20T00:16:50;10.15;;;6.65;;
6564;SDS011;3316;44.118;27.258;2023-07-20T00:19:24;7.47;;;6.30;;
6564;SDS011;3316;44.118;27.258;2023-07-20T00:21:51;11.45;;;7.18;;
6564;SDS011;3316;44.118;27.258;2023-07-20T00:24:17;12.43;;;6.57;;
6564;SDS011;3316;44.118;27.258;2023-07-20T00:26:43;8.23;;;6.30;;
6564;SDS011;3316;44.118;27.258;2023-07-20T00:29:09;11.43;;;6.55;;
6564;SDS011;3316;44.118;27.258;2023-07-20T00:31:34;11.13;;;7.15;;
6564;SDS011;3316;44.118;27.258;2023-07-20T00:34:02;8.68;;;6.32;;
6564;SDS011;3316;44.118;27.258;2023-07-20T00:36:28;7.88;;;6.65;;
6564;SDS011;3316;44.118;27.258;2023-07-20T00:38:53;11.85;;;6.45;;
6564;SDS011;3316;44.118;27.258;2023-07-20T00:41:19;8.07;;;6.22;;
6564;SDS011;3316;44.118;27.258;2023-07-20T00:43:44;10.02;;;6.43;;
6564;SDS011;3316;44.118;27.258;2023-07-20T00:46:10;9.98;;;6.90;;
6564;SDS011;3316;44.118;27.258;2023-07-20T00:48:35;8.18;;;5.45;;
6564;SDS011;3316;44.118;27.258;2023-07-20T00:51:01;9.55;;;6.60;;
6564;SDS011;3316;44.118;27.258;2023-07-20T00:53:27;7.38;;;5.60;;
6564;SDS011;3316;44.118;27.258;2023-07-20T00:55:53;10.13;;;5.68;;
6564;SDS011;3316;44.118;27.258;2023-07-20T00:58:19;10.93;;;6.78;;
6564;SDS011;3316;44.118;27.258;2023-07-20T01:00:45;9.50;;;6.05;;
6564;SDS011;3316;44.118;27.258;2023-07-20T01:03:12;6.18;;;5.40;;
6564;SDS011;3316;44.118;27.258;2023-07-20T01:05:51;9.52;;;5.65;;
6564;SDS011;3316;44.118;27.258;2023-07-20T01:14:11;13.40;;;6.50;;
6564;SDS011;3316;44.118;27.258;2023-07-20T01:16:39;8.48;;;6.25;;
6564;SDS011;3316;44.118;27.258;2023-07-20T01:19:04;12.73;;;6.35;;
6564;SDS011;3316;44.118;27.258;2023-07-20T01:24:32;8.18;;;6.22;;
6564;SDS011;3316;44.118;27.258;2023-07-20T01:33:01;20.08;;;6.57;;
6564;SDS011;3316;44.118;27.258;2023-07-20T01:35:28;15.05;;;7.18;;
6564;SDS011;3316;44.118;27.258;2023-07-20T01:37:55;24.35;;;6.80;;
6564;SDS011;3316;44.118;27.258;2023-07-20T01:40:23;23.15;;;7.53;;
6564;SDS011;3316;44.118;27.258;2023-07-20T01:42:50;20.83;;;6.75;;
6564;SDS011;3316;44.118;27.258;2023-07-20T01:45:17;21.70;;;7.20;;
6564;SDS011;3316;44.118;27.258;2023-07-20T01:47:42;36.15;;;8.88;;
6564;SDS011;3316;44.118;27.258;2023-07-20T01:50:08;30.75;;;7.78;;
6564;SDS011;3316;44.118;27.258;2023-07-20T01:52:34;36.63;;;7.85;;
6564;SDS011;3316;44.118;27.258;2023-07-20T01:54:59;24.92;;;6.65;;
6564;SDS011;3316;44.118;27.258;2023-07-20T01:57:25;33.67;;;7.22;;
6564;SDS011;3316;44.118;27.258;2023-07-20T01:59:50;27.00;;;7.43;;
6564;SDS011;3316;44.118;27.258;2023-07-20T02:02:16;27.70;;;7.70;;
6564;SDS011;3316;44.118;27.258;2023-07-20T02:04:42;39.08;;;8.63;;
6564;SDS011;3316;44.118;27.258;2023-07-20T02:07:07;31.95;;;8.88;;
6564;SDS011;3316;44.118;27.258;2023-07-20T02:09:33;25.13;;;6.88;;
6564;SDS011;3316;44.118;27.258;2023-07-20T02:11:58;21.50;;;7.60;;
6564;SDS011;3316;44.118;27.258;2023-07-20T02:14:23;21.52;;;7.47;;
6564;SDS011;3316;44.118;27.258;2023-07-20T02:16:49;29.13;;;8.40;;
6564;SDS011;3316;44.118;27.258;2023-07-20T02:19:19;29.60;;;7.57;;
6564;SDS011;3316;44.118;27.258;2023-07-20T02:21:44;26.60;;;7.97;;
6564;SDS011;3316;44.118;27.258;2023-07-20T02:24:10;38.78;;;8.32;;
6564;SDS011;3316;44.118;27.258;2023-07-20T02:26:36;27.95;;;8.32;;
6564;SDS011;3316;44.118;27.258;2023-07-20T02:29:02;24.02;;;7.32;;
6564;SDS011;3316;44.118;27.258;2023-07-20T02:31:29;18.40;;;7.68;;
6564;SDS011;3316;44.118;27.258;2023-07-20T02:33:55;24.35;;;8.90;;
6564;SDS011;3316;44.118;27.258;2023-07-20T02:36:20;19.88;;;7.00;;
6564;SDS011;3316;44.118;27.258;2023-07-20T02:38:46;31.25;;;8.73;;
6564;SDS011;3316;44.118;27.258;2023-07-20T02:41:12;24.70;;;7.60;;
6564;SDS011;3316;44.118;27.258;2023-07-20T02:43:38;23.92;;;8.35;;
6564;SDS011;3316;44.118;27.258;2023-07-20T02:46:04;17.83;;;6.80;;
6564;SDS011;3316;44.118;27.258;2023-07-20T02:48:29;18.90;;;8.73;;
6564;SDS011;3316;44.118;27.258;2023-07-20T02:50:54;20.75;;;8.95;;
6564;SDS011;3316;44.118;27.258;2023-07-20T02:53:20;36.05;;;8.20;;
6564;SDS011;3316;44.118;27.258;2023-07-20T02:55:45;20.95;;;8.52;;
6564;SDS011;3316;44.118;27.258;2023-07-20T02:58:11;25.40;;;8.75;;
6564;SDS011;3316;44.118;27.258;2023-07-20T03:00:36;26.67;;;7.95;;
6564;SDS011;3316;44.118;27.258;2023-07-20T03:03:02;30.10;;;8.50;;
6564;SDS011;3316;44.118;27.258;2023-07-20T03:05:27;16.50;;;8.07;;
6564;SDS011;3316;44.118;27.258;2023-07-20T03:07:53;24.08;;;7.97;;
6564;SDS011;3316;44.118;27.258;2023-07-20T03:10:18;27.98;;;9.25;;
6564;SDS011;3316;44.118;27.258;2023-07-20T03:12:44;29.35;;;8.80;;
6564;SDS011;3316;44.118;27.258;2023-07-20T03:15:10;25.02;;;8.20;;
6564;SDS011;3316;44.118;27.258;2023-07-20T03:17:35;20.48;;;8.43;;
6564;SDS011;3316;44.118;27.258;2023-07-20T03:20:00;19.10;;;7.35;;
6564;SDS011;3316;44.118;27.258;2023-07-20T03:22:26;17.92;;;7.72;;
6564;SDS011;3316;44.118;27.258;2023-07-20T03:24:52;23.85;;;8.00;;
6564;SDS011;3316;44.118;27.258;2023-07-20T03:27:17;16.58;;;7.95;;
6564;SDS011;3316;44.118;27.258;2023-07-20T03:29:43;21.98;;;7.63;;
6564;SDS011;3316;44.118;27.258;2023-07-20T03:32:09;25.80;;;8.30;;
6564;SDS011;3316;44.118;27.258;2023-07-20T03:34:35;29.63;;;8.05;;
6564;SDS011;3316;44.118;27.258;2023-07-20T03:37:00;29.48;;;8.45;;
6564;SDS011;3316;44.118;27.258;2023-07-20T03:39:26;18.77;;;8.18;;
6564;SDS011;3316;44.118;27.258;2023-07-20T03:41:51;22.23;;;7.72;;
6564;SDS011;3316;44.118;27.258;2023-07-20T03:44:17;19.63;;;7.90;;
6564;SDS011;3316;44.118;27.258;2023-07-20T03:46:43;22.20;;;8.57;;
6564;SDS011;3316;44.118;27.258;2023-07-20T03:49:09;24.38;;;9.38;;
6564;SDS011;3316;44.118;27.258;2023-07-20T03:51:35;28.33;;;9.48;;
6564;SDS011;3316;44.118;27.258;2023-07-20T03:54:01;21.25;;;8.07;;
6564;SDS011;3316;44.118;27.258;2023-07-20T03:56:27;29.10;;;9.32;;
6564;SDS011;3316;44.118;27.258;2023-07-20T03:58:52;17.10;;;8.45;;
6564;SDS011;3316;44.118;27.258;2023-07-20T04:01:18;22.30;;;7.85;;
6564;SDS011;3316;44.118;27.258;2023-07-20T04:03:43;16.73;;;7.72;;
6564;SDS011;3316;44.118;27.258;2023-07-20T04:06:09;21.52;;;7.75;;
6564;SDS011;3316;44.118;27.258;2023-07-20T04:08:35;15.38;;;7.85;;
6564;SDS011;3316;44.118;27.258;2023-07-20T04:11:03;37.13;;;15.32;;
6564;SDS011;3316;44.118;27.258;2023-07-20T04:13:29;38.08;;;15.27;;
6564;SDS011;3316;44.118;27.258;2023-07-20T04:15:59;18.13;;;7.93;;
6564;SDS011;3316;44.118;27.258;2023-07-20T04:18:25;49.45;;;17.23;;
6564;SDS011;3316;44.118;27.258;2023-07-20T04:20:51;31.90;;;11.02;;
6564;SDS011;3316;44.118;27.258;2023-07-20T04:23:16;28.95;;;13.73;;
6564;SDS011;3316;44.118;27.258;2023-07-20T04:25:42;28.60;;;10.80;;
6564;SDS011;3316;44.118;27.258;2023-07-20T04:28:08;51.88;;;10.27;;
6564;SDS011;3316;44.118;27.258;2023-07-20T04:30:36;38.83;;;11.40;;
6564;SDS011;3316;44.118;27.258;2023-07-20T04:33:05;73.70;;;13.57;;
6564;SDS011;3316;44.118;27.258;2023-07-20T04:35:52;26.65;;;7.72;;
6564;SDS011;3316;44.118;27.258;2023-07-20T04:38:19;19.85;;;8.88;;
6564;SDS011;3316;44.118;27.258;2023-07-20T04:40:46;33.35;;;10.85;;
6564;SDS011;3316;44.118;27.258;2023-07-20T04:43:15;27.35;;;9.10;;
6564;SDS011;3316;44.118;27.258;2023-07-20T04:45:41;21.60;;;8.85;;
6564;SDS011;3316;44.118;27.258;2023-07-20T04:48:10;55.97;;;12.32;;
6564;SDS011;3316;44.118;27.258;2023-07-20T04:50:38;35.67;;;9.85;;
6564;SDS011;3316;44.118;27.258;2023-07-20T04:53:05;31.85;;;13.88;;
6564;SDS011;3316;44.118;27.258;2023-07-20T04:55:30;22.08;;;6.63;;
6564;SDS011;3316;44.118;27.258;2023-07-20T04:57:58;39.75;;;10.50;;
6564;SDS011;3316;44.118;27.258;2023-07-20T05:00:25;63.85;;;26.52;;
6564;SDS011;3316;44.118;27.258;2023-07-20T05:02:50;51.92;;;21.73;;
6564;SDS011;3316;44.118;27.258;2023-07-20T05:05:16;50.20;;;20.38;;
6564;SDS011;3316;44.118;27.258;2023-07-20T05:07:41;30.73;;;10.63;;
6564;SDS011;3316;44.118;27.258;2023-07-20T05:10:07;28.77;;;10.65;;
6564;SDS011;3316;44.118;27.258;2023-07-20T05:12:32;34.85;;;11.05;;
6564;SDS011;3316;44.118;27.258;2023-07-20T05:14:58;30.35;;;10.90;;
6564;SDS011;3316;44.118;27.258;2023-07-20T05:17:23;56.70;;;20.63;;
6564;SDS011;3316;44.118;27.258;2023-07-20T05:19:49;35.03;;;13.40;;
6564;SDS011;3316;44.118;27.258;2023-07-20T05:22:15;53.63;;;23.75;;
6564;SDS011;3316;44.118;27.258;2023-07-20T05:24:41;24.55;;;10.88;;
6564;SDS011;3316;44.118;27.258;2023-07-20T05:27:07;24.95;;;9.10;;
6564;SDS011;3316;44.118;27.258;2023-07-20T05:29:32;30.02;;;11.43;;
6564;SDS011;3316;44.118;27.258;2023-07-20T05:31:58;38.22;;;10.88;;
6564;SDS011;3316;44.118;27.258;2023-07-20T05:34:23;26.13;;;8.30;;
6564;SDS011;3316;44.118;27.258;2023-07-20T05:39:36;31.05;;;9.13;;
6564;SDS011;3316;44.118;27.258;2023-07-20T05:42:01;24.50;;;10.43;;
6564;SDS011;3316;44.118;27.258;2023-07-20T05:44:27;38.08;;;18.67;;
6564;SDS011;3316;44.118;27.258;2023-07-20T05:46:52;26.98;;;11.32;;
6564;SDS011;3316;44.118;27.258;2023-07-20T05:49:18;29.63;;;11.35;;
6564;SDS011;3316;44.118;27.258;2023-07-20T05:51:43;20.85;;;7.05;;
6564;SDS011;3316;44.118;27.258;2023-07-20T05:54:08;20.13;;;9.38;;
6564;SDS011;3316;44.118;27.258;2023-07-20T05:56:34;27.05;;;10.73;;
6564;SDS011;3316;44.118;27.258;2023-07-20T05:58:59;20.80;;;7.82;;
6564;SDS011;3316;44.118;27.258;2023-07-20T06:01:25;17.33;;;7.60;;
6564;SDS011;3316;44.118;27.258;2023-07-20T06:03:52;23.85;;;9.88;;
6564;SDS011;3316;44.118;27.258;2023-07-20T06:06:18;17.30;;;6.30;;
6564;SDS011;3316;44.118;27.258;2023-07-20T06:08:44;31.30;;;14.82;;
6564;SDS011;3316;44.118;27.258;2023-07-20T06:11:09;18.23;;;6.93;;
6564;SDS011;3316;44.118;27.258;2023-07-20T06:13:35;20.27;;;6.72;;
6564;SDS011;3316;44.118;27.258;2023-07-20T06:16:00;37.22;;;11.77;;
6564;SDS011;3316;44.118;27.258;2023-07-20T06:18:26;43.90;;;17.92;;
6564;SDS011;3316;44.118;27.258;2023-07-20T06:20:52;38.03;;;14.90;;
6564;SDS011;3316;44.118;27.258;2023-07-20T06:23:18;31.25;;;11.15;;
6564;SDS011;3316;44.118;27.258;2023-07-20T06:25:44;26.25;;;14.43;;
6564;SDS011;3316;44.118;27.258;2023-07-20T06:28:10;35.85;;;10.25;;
6564;SDS011;3316;44.118;27.258;2023-07-20T06:30:36;47.97;;;22.35;;
6564;SDS011;3316;44.118;27.258;2023-07-20T06:33:02;68.50;;;31.08;;
6564;SDS011;3316;44.118;27.258;2023-07-20T06:35:27;119.00;;;57.65;;
6564;SDS011;3316;44.118;27.258;2023-07-20T06:37:53;68.70;;;39.38;;
6564;SDS011;3316;44.118;27.258;2023-07-20T06:40:18;109.45;;;63.20;;
6564;SDS011;3316;44.118;27.258;2023-07-20T06:42:44;24.88;;;13.13;;
6564;SDS011;3316;44.118;27.258;2023-07-20T06:45:09;54.17;;;28.63;;
6564;SDS011;3316;44.118;27.258;2023-07-20T06:47:38;53.40;;;19.48;;
6564;SDS011;3316;44.118;27.258;2023-07-20T06:50:04;45.30;;;21.17;;
6564;SDS011;3316;44.118;27.258;2023-07-20T06:52:31;67.20;;;36.67;;
6564;SDS011;3316;44.118;27.258;2023-07-20T06:54:57;37.15;;;19.13;;
6564;SDS011;3316;44.118;27.258;2023-07-20T06:57:22;55.78;;;29.58;;
6564;SDS011;3316;44.118;27.258;2023-07-20T06:59:47;38.15;;;11.27;;
6564;SDS011;3316;44.118;27.258;2023-07-20T07:02:13;27.92;;;14.57;;
6564;SDS011;3316;44.118;27.258;2023-07-20T07:04:39;33.85;;;17.05;;
6564;SDS011;3316;44.118;27.258;2023-07-20T07:07:05;19.05;;;11.05;;
6564;SDS011;3316;44.118;27.258;2023-07-20T07:09:30;17.88;;;9.93;;
6564;SDS011;3316;44.118;27.258;2023-07-20T07:11:56;9.93;;;4.43;;
6564;SDS011;3316;44.118;27.258;2023-07-20T07:14:22;15.18;;;6.90;;
6564;SDS011;3316;44.118;27.258;2023-07-20T07:16:47;20.02;;;8.73;;
6564;SDS011;3316;44.118;27.258;2023-07-20T07:19:13;13.85;;;6.93;;
6564;SDS011;3316;44.118;27.258;2023-07-20T07:21:38;31.02;;;15.43;;
6564;SDS011;3316;44.118;27.258;2023-07-20T07:24:04;10.35;;;5.30;;
6564;SDS011;3316;44.118;27.258;2023-07-20T07:26:32;21.20;;;10.23;;
6564;SDS011;3316;44.118;27.258;2023-07-20T07:28:58;12.35;;;5.25;;
6564;SDS011;3316;44.118;27.258;2023-07-20T07:31:24;8.55;;;4.05;;
6564;SDS011;3316;44.118;27.258;2023-07-20T07:33:50;12.48;;;5.07;;
6564;SDS011;3316;44.118;27.258;2023-07-20T07:36:16;31.33;;;13.95;;
6564;SDS011;3316;44.118;27.258;2023-07-20T07:38:41;10.27;;;4.85;;
6564;SDS011;3316;44.118;27.258;2023-07-20T07:41:07;9.68;;;3.72;;
6564;SDS011;3316;44.118;27.258;2023-07-20T07:43:33;8.38;;;4.90;;
6564;SDS011;3316;44.118;27.258;2023-07-20T07:46:00;21.20;;;9.57;;
6564;SDS011;3316;44.118;27.258;2023-07-20T07:48:25;9.98;;;5.68;;
6564;SDS011;3316;44.118;27.258;2023-07-20T07:50:51;32.58;;;13.13;;
6564;SDS011;3316;44.118;27.258;2023-07-20T07:53:16;18.85;;;10.70;;
6564;SDS011;3316;44.118;27.258;2023-07-20T07:55:43;16.65;;;6.82;;
6564;SDS011;3316;44.118;27.258;2023-07-20T07:58:08;27.63;;;9.95;;
6564;SDS011;3316;44.118;27.258;2023-07-20T08:00:34;26.10;;;9.55;;
6564;SDS011;3316;44.118;27.258;2023-07-20T08:03:00;33.35;;;10.52;;
6564;SDS011;3316;44.118;27.258;2023-07-20T08:05:25;27.20;;;8.25;;
6564;SDS011;3316;44.118;27.258;2023-07-20T08:07:51;31.70;;;12.82;;
6564;SDS011;3316;44.118;27.258;2023-07-20T08:10:17;55.45;;;21.38;;
6564;SDS011;3316;44.118;27.258;2023-07-20T08:12:42;18.67;;;8.05;;
6564;SDS011;3316;44.118;27.258;2023-07-20T08:15:10;19.15;;;6.68;;
6564;SDS011;3316;44.118;27.258;2023-07-20T08:17:36;46.78;;;16.13;;
6564;SDS011;3316;44.118;27.258;2023-07-20T08:20:02;32.53;;;14.30;;
6564;SDS011;3316;44.118;27.258;2023-07-20T08:22:27;20.75;;;9.93;;
6564;SDS011;3316;44.118;27.258;2023-07-20T08:24:53;25.27;;;11.38;;
6564;SDS011;3316;44.118;27.258;2023-07-20T08:27:18;11.10;;;5.32;;
6564;SDS011;3316;44.118;27.258;2023-07-20T08:29:43;28.67;;;8.48;;
6564;SDS011;3316;44.118;27.258;2023-07-20T08:32:09;11.20;;;5.35;;
6564;SDS011;3316;44.118;27.258;2023-07-20T08:34:34;25.85;;;9.85;;
6564;SDS011;3316;44.118;27.258;2023-07-20T08:37:00;16.10;;;6.15;;
6564;SDS011;3316;44.118;27.258;2023-07-20T08:39:25;25.77;;;7.03;;
6564;SDS011;3316;44.118;27.258;2023-07-20T08:41:51;37.25;;;15.35;;
6564;SDS011;3316;44.118;27.258;2023-07-20T08:44:19;68.93;;;10.35;;
6564;SDS011;3316;44.118;27.258;2023-07-20T08:46:45;54.95;;;8.98;;
6564;SDS011;3316;44.118;27.258;2023-07-20T08:49:12;41.55;;;9.48;;
6564;SDS011;3316;44.118;27.258;2023-07-20T08:51:38;54.78;;;7.40;;
6564;SDS011;3316;44.118;27.258;2023-07-20T08:54:06;25.67;;;7.65;;
6564;SDS011;3316;44.118;27.258;2023-07-20T08:56:33;26.63;;;10.80;;
6564;SDS011;3316;44.118;27.258;2023-07-20T08:58:59;22.10;;;7.03;;
6564;SDS011;3316;44.118;27.258;2023-07-20T09:01:26;24.95;;;8.57;;
6564;SDS011;3316;44.118;27.258;2023-07-20T09:03:52;33.08;;;6.65;;
6564;SDS011;3316;44.118;27.258;2023-07-20T09:06:17;20.75;;;6.78;;
6564;SDS011;3316;44.118;27.258;2023-07-20T09:08:43;25.13;;;7.57;;
6564;SDS011;3316;44.118;27.258;2023-07-20T09:11:11;15.68;;;6.38;;
6564;SDS011;3316;44.118;27.258;2023-07-20T09:13:37;18.50;;;7.95;;
6564;SDS011;3316;44.118;27.258;2023-07-20T09:16:03;18.05;;;6.20;;
6564;SDS011;3316;44.118;27.258;2023-07-20T09:18:30;25.75;;;8.13;;
6564;SDS011;3316;44.118;27.258;2023-07-20T09:21:03;26.52;;;9.43;;
6564;SDS011;3316;44.118;27.258;2023-07-20T09:23:35;19.42;;;7.22;;
6564;SDS011;3316;44.118;27.258;2023-07-20T09:26:09;31.63;;;7.72;;
6564;SDS011;3316;44.118;27.258;2023-07-20T09:29:09;14.75;;;6.85;;
6564;SDS011;3316;44.118;27.258;2023-07-20T09:31:32;17.75;;;6.80;;
6564;SDS011;3316;44.118;27.258;2023-07-20T09:33:57;26.63;;;7.80;;
6564;SDS011;3316;44.118;27.258;2023-07-20T09:36:23;42.50;;;9.43;;
6564;SDS011;3316;44.118;27.258;2023-07-20T09:38:48;12.68;;;6.13;;
6564;SDS011;3316;44.118;27.258;2023-07-20T09:41:14;27.05;;;7.60;;
6564;SDS011;3316;44.118;27.258;2023-07-20T09:43:40;18.55;;;6.45;;
6564;SDS011;3316;44.118;27.258;2023-07-20T09:46:07;33.38;;;7.30;;
6564;SDS011;3316;44.118;27.258;2023-07-20T09:48:32;17.73;;;7.15;;
6564;SDS011;3316;44.118;27.258;2023-07-20T09:50:58;26.27;;;10.25;;
6564;SDS011;3316;44.118;27.258;2023-07-20T09:53:24;22.33;;;8.20;;
6564;SDS011;3316;44.118;27.258;2023-07-20T09:55:51;30.55;;;12.00;;
6564;SDS011;3316;44.118;27.258;2023-07-20T09:58:17;15.05;;;6.82;;
6564;SDS011;3316;44.118;27.258;2023-07-20T10:00:43;27.05;;;10.23;;
6564;SDS011;3316;44.118;27.258;2023-07-20T10:03:13;22.25;;;6.70;;
6564;SDS011;3316;44.118;27.258;2023-07-20T10:05:43;67.85;;;22.23;;
6564;SDS011;3316;44.118;27.258;2023-07-20T10:08:13;22.42;;;6.95;;
6564;SDS011;3316;44.118;27.258;2023-07-20T10:10:41;11.77;;;4.63;;
6564;SDS011;3316;44.118;27.258;2023-07-20T10:13:10;10.05;;;4.50;;
6564;SDS011;3316;44.118;27.258;2023-07-20T10:15:53;11.43;;;4.90;;
6564;SDS011;3316;44.118;27.258;2023-07-20T10:18:28;40.50;;;8.38;;
6564;SDS011;3316;44.118;27.258;2023-07-20T10:20:56;13.40;;;5.65;;
6564;SDS011;3316;44.118;27.258;2023-07-20T10:23:24;14.57;;;4.88;;
6564;SDS011;3316;44.118;27.258;2023-07-20T10:25:54;16.38;;;5.03;;
6564;SDS011;3316;44.118;27.258;2023-07-20T10:28:20;10.23;;;4.63;;
6564;SDS011;3316;44.118;27.258;2023-07-20T10:30:48;14.05;;;5.38;;
6564;SDS011;3316;44.118;27.258;2023-07-20T10:33:14;21.33;;;5.13;;
6564;SDS011;3316;44.118;27.258;2023-07-20T10:36:02;9.82;;;5.32;;
6564;SDS011;3316;44.118;27.258;2023-07-20T10:38:38;11.68;;;5.05;;
6564;SDS011;3316;44.118;27.258;2023-07-20T10:41:15;6.88;;;4.20;;
6564;SDS011;3316;44.118;27.258;2023-07-20T10:43:44;8.57;;;4.72;;
6564;SDS011;3316;44.118;27.258;2023-07-20T10:46:11;6.30;;;4.80;;
6564;SDS011;3316;44.118;27.258;2023-07-20T10:48:59;8.45;;;4.35;;
6564;SDS011;3316;44.118;27.258;2023-07-20T10:51:24;7.25;;;4.22;;
6564;SDS011;3316;44.118;27.258;2023-07-20T10:53:49;18.17;;;8.27;;
6564;SDS011;3316;44.118;27.258;2023-07-20T10:56:19;11.57;;;6.00;;
6564;SDS011;3316;44.118;27.258;2023-07-20T10:58:45;14.95;;;5.50;;
6564;SDS011;3316;44.118;27.258;2023-07-20T11:01:15;9.68;;;5.28;;
6564;SDS011;3316;44.118;27.258;2023-07-20T11:03:42;14.20;;;4.63;;
6564;SDS011;3316;44.118;27.258;2023-07-20T11:09:11;16.95;;;5.70;;
6564;SDS011;3316;44.118;27.258;2023-07-20T11:11:39;20.05;;;5.75;;
6564;SDS011;3316;44.118;27.258;2023-07-20T11:14:06;12.18;;;5.28;;
6564;SDS011;3316;44.118;27.258;2023-07-20T11:19:01;7.85;;;4.82;;
6564;SDS011;3316;44.118;27.258;2023-07-20T11:21:27;11.95;;;5.00;;
6564;SDS011;3316;44.118;27.258;2023-07-20T11:23:54;12.90;;;5.80;;
6564;SDS011;3316;44.118;27.258;2023-07-20T11:26:20;11.45;;;5.80;;
6564;SDS011;3316;44.118;27.258;2023-07-20T11:28:49;14.13;;;5.05;;
6564;SDS011;3316;44.118;27.258;2023-07-20T11:31:16;12.50;;;6.07;;
6564;SDS011;3316;44.118;27.258;2023-07-20T11:33:42;8.18;;;5.55;;
6564;SDS011;3316;44.118;27.258;2023-07-20T11:36:08;23.95;;;9.98;;
6564;SDS011;3316;44.118;27.258;2023-07-20T11:38:34;28.38;;;10.43;;
6564;SDS011;3316;44.118;27.258;2023-07-20T11:40:59;21.23;;;10.95;;
6564;SDS011;3316;44.118;27.258;2023-07-20T11:43:25;9.52;;;5.15;;
6564;SDS011;3316;44.118;27.258;2023-07-20T11:45:51;34.58;;;21.00;;
6564;SDS011;3316;44.118;27.258;2023-07-20T11:48:16;11.50;;;6.55;;
6564;SDS011;3316;44.118;27.258;2023-07-20T11:50:42;13.48;;;7.38;;
6564;SDS011;3316;44.118;27.258;2023-07-20T11:53:08;9.40;;;5.80;;
6564;SDS011;3316;44.118;27.258;2023-07-20T11:55:34;16.55;;;5.93;;
6564;SDS011;3316;44.118;27.258;2023-07-20T11:58:06;11.18;;;6.13;;
6564;SDS011;3316;44.118;27.258;2023-07-20T12:00:33;8.90;;;6.00;;
6564;SDS011;3316;44.118;27.258;2023-07-20T12:02:59;12.23;;;5.50;;
6564;SDS011;3316;44.118;27.258;2023-07-20T12:05:25;20.67;;;6.28;;
6564;SDS011;3316;44.118;27.258;2023-07-20T12:07:51;13.75;;;5.85;;
6564;SDS011;3316;44.118;27.258;2023-07-20T12:10:23;17.02;;;6.63;;
6564;SDS011;3316;44.118;27.258;2023-07-20T12:12:53;17.23;;;8.50;;
6564;SDS011;3316;44.118;27.258;2023-07-20T12:17:44;10.82;;;5.72;;
6564;SDS011;3316;44.118;27.258;2023-07-20T12:20:11;9.23;;;5.03;;
6564;SDS011;3316;44.118;27.258;2023-07-20T12:22:40;15.88;;;8.30;;
6564;SDS011;3316;44.118;27.258;2023-07-20T12:25:06;11.75;;;5.18;;
6564;SDS011;3316;44.118;27.258;2023-07-20T12:27:33;10.80;;;6.15;;
6564;SDS011;3316;44.118;27.258;2023-07-20T12:30:01;11.40;;;5.22;;
6564;SDS011;3316;44.118;27.258;2023-07-20T12:32:29;11.82;;;5.57;;
6564;SDS011;3316;44.118;27.258;2023-07-20T12:34:54;11.50;;;5.38;;
6564;SDS011;3316;44.118;27.258;2023-07-20T12:37:20;13.73;;;5.70;;
6564;SDS011;3316;44.118;27.258;2023-07-20T12:39:45;11.18;;;4.95;;
6564;SDS011;3316;44.118;27.258;2023-07-20T12:42:12;20.02;;;6.65;;
6564;SDS011;3316;44.118;27.258;2023-07-20T12:44:40;18.98;;;8.45;;
6564;SDS011;3316;44.118;27.258;2023-07-20T12:47:05;19.35;;;7.35;;
6564;SDS011;3316;44.118;27.258;2023-07-20T12:49:31;22.23;;;7.00;;
6564;SDS011;3316;44.118;27.258;2023-07-20T12:51:56;16.25;;;7.22;;
6564;SDS011;3316;44.118;27.258;2023-07-20T12:54:22;11.55;;;5.90;;
6564;SDS011;3316;44.118;27.258;2023-07-20T12:56:47;16.40;;;7.18;;
6564;SDS011;3316;44.118;27.258;2023-07-20T12:59:13;12.48;;;4.45;;
6564;SDS011;3316;44.118;27.258;2023-07-20T13:01:38;23.85;;;9.52;;
6564;SDS011;3316;44.118;27.258;2023-07-20T13:04:06;11.23;;;4.63;;
6564;SDS011;3316;44.118;27.258;2023-07-20T13:06:34;11.18;;;4.90;;
6564;SDS011;3316;44.118;27.258;2023-07-20T13:09:00;7.53;;;4.18;;
6564;SDS011;3316;44.118;27.258;2023-07-20T13:11:25;9.88;;;3.97;;
6564;SDS011;3316;44.118;27.258;2023-07-20T13:13:51;20.92;;;4.80;;
6564;SDS011;3316;44.118;27.258;2023-07-20T13:16:17;6.93;;;3.75;;
6564;SDS011;3316;44.118;27.258;2023-07-20T13:18:42;11.70;;;4.30;;
6564;SDS011;3316;44.118;27.258;2023-07-20T13:21:07;9.75;;;4.90;;
6564;SDS011;3316;44.118;27.258;2023-07-20T13:23:36;17.95;;;6.30;;
6564;SDS011;3316;44.118;27.258;2023-07-20T13:26:02;15.13;;;4.47;;
6564;SDS011;3316;44.118;27.258;2023-07-20T13:28:29;17.35;;;6.75;;
6564;SDS011;3316;44.118;27.258;2023-07-20T13:30:55;15.18;;;6.75;;
6564;SDS011;3316;44.118;27.258;2023-07-20T13:33:20;16.30;;;5.18;;
6564;SDS011;3316;44.118;27.258;2023-07-20T13:35:45;10.00;;;4.30;;
6564;SDS011;3316;44.118;27.258;2023-07-20T13:38:11;11.45;;;3.90;;
6564;SDS011;3316;44.118;27.258;2023-07-20T13:40:37;19.20;;;3.92;;
6564;SDS011;3316;44.118;27.258;2023-07-20T13:43:02;10.43;;;3.92;;
6564;SDS011;3316;44.118;27.258;2023-07-20T13:45:28;23.00;;;4.72;;
6564;SDS011;3316;44.118;27.258;2023-07-20T13:47:53;11.43;;;4.00;;
6564;SDS011;3316;44.118;27.258;2023-07-20T13:50:19;6.65;;;3.72;;
6564;SDS011;3316;44.118;27.258;2023-07-20T13:52:45;6.90;;;3.67;;
6564;SDS011;3316;44.118;27.258;2023-07-20T13:55:10;9.13;;;3.72;;
6564;SDS011;3316;44.118;27.258;2023-07-20T13:57:36;7.53;;;3.90;;
6564;SDS011;3316;44.118;27.258;2023-07-20T14:00:02;12.95;;;3.65;;
6564;SDS011;3316;44.118;27.258;2023-07-20T14:02:29;6.78;;;3.83;;
6564;SDS011;3316;44.118;27.258;2023-07-20T14:04:54;6.53;;;4.00;;
6564;SDS011;3316;44.118;27.258;2023-07-20T14:07:20;6.50;;;3.90;;
6564;SDS011;3316;44.118;27.258;2023-07-20T14:09:46;6.32;;;3.70;;
6564;SDS011;3316;44.118;27.258;2023-07-20T14:12:12;8.82;;;3.88;;
6564;SDS011;3316;44.118;27.258;2023-07-20T14:14:39;7.90;;;3.20;;
6564;SDS011;3316;44.118;27.258;2023-07-20T14:17:06;8.30;;;3.92;;
6564;SDS011;3316;44.118;27.258;2023-07-20T14:19:32;6.25;;;3.67;;
6564;SDS011;3316;44.118;27.258;2023-07-20T14:21:57;14.43;;;5.43;;
6564;SDS011;3316;44.118;27.258;2023-07-20T14:24:24;11.55;;;4.57;;
6564;SDS011;3316;44.118;27.258;2023-07-20T14:26:51;9.02;;;3.65;;
6564;SDS011;3316;44.118;27.258;2023-07-20T14:29:16;7.70;;;3.70;;
6564;SDS011;3316;44.118;27.258;2023-07-20T14:31:43;7.38;;;3.88;;
6564;SDS011;3316;44.118;27.258;2023-07-20T14:34:09;7.60;;;3.70;;
6564;SDS011;3316;44.118;27.258;2023-07-20T14:36:35;10.27;;;3.40;;
6564;SDS011;3316;44.118;27.258;2023-07-20T14:39:00;8.05;;;3.33;;
6564;SDS011;3316;44.118;27.258;2023-07-20T14:41:26;8.52;;;3.97;;
6564;SDS011;3316;44.118;27.258;2023-07-20T14:43:51;7.28;;;3.97;;
6564;SDS011;3316;44.118;27.258;2023-07-20T14:46:17;7.93;;;3.60;;
6564;SDS011;3316;44.118;27.258;2023-07-20T14:48:42;8.40;;;4.22;;
6564;SDS011;3316;44.118;27.258;2023-07-20T14:51:08;9.32;;;4.45;;
6564;SDS011;3316;44.118;27.258;2023-07-20T14:53:33;27.60;;;6.32;;
6564;SDS011;3316;44.118;27.258;2023-07-20T14:56:02;37.03;;;11.52;;
6564;SDS011;3316;44.118;27.258;2023-07-20T14:58:29;24.70;;;6.25;;
6564;SDS011;3316;44.118;27.258;2023-07-20T15:00:54;17.27;;;6.20;;
6564;SDS011;3316;44.118;27.258;2023-07-20T15:03:20;25.73;;;6.72;;
6564;SDS011;3316;44.118;27.258;2023-07-20T15:05:45;21.92;;;7.00;;
6564;SDS011;3316;44.118;27.258;2023-07-20T15:08:11;26.55;;;9.30;;
6564;SDS011;3316;44.118;27.258;2023-07-20T15:10:36;18.17;;;7.32;;